Time;durP1;ratioP1;P1;durP2;ratioP2;P2;SDS_P1;SDS_P2;PMS_P1;PMS_P2;Temp;Humidity;BMP_temperature;BMP_pressure;BME280_temperature;BME280_humidity;BME280_pressure;Samples;Min_cycle;Max_cycle;Signal;HPM_P1;HPM_P2
2023/05/17 00:00:09;;;;;;;21.63;3.97;;;9.30;99.90;;;;;;4955786;28;207034;-68
2023/05/17 00:02:35;;;;;;;27.05;4.57;;;9.20;99.90;;;;;;5000729;28;20053;-68
2023/05/17 00:05:02;;;;;;;26.50;3.97;;;9.10;99.90;;;;;;4974301;28;212899;-68
2023/05/17 00:07:28;;;;;;;29.75;4.95;;;9.00;99.90;;;;;;5017149;28;20061;-68
2023/05/17 00:09:55;;;;;;;30.67;4.43;;;9.00;99.90;;;;;;4993104;28;206477;-68
2023/05/17 00:12:22;;;;;;;25.05;4.15;;;8.90;99.90;;;;;;5024642;28;20049;-68
2023/05/17 00:14:48;;;;;;;24.83;4.70;;;8.90;99.90;;;;;;4977743;28;207872;-68
2023/05/17 00:17:14;;;;;;;22.35;4.22;;;8.80;99.90;;;;;;5012408;28;20431;-69
2023/05/17 00:19:40;;;;;;;27.35;4.75;;;8.80;99.90;;;;;;4970737;28;207255;-68
2023/05/17 00:22:06;;;;;;;24.90;3.88;;;8.70;99.90;;;;;;4993842;28;20058;-68
2023/05/17 00:24:32;;;;;;;23.08;4.10;;;8.70;99.90;;;;;;4966247;28;220881;-68
2023/05/17 00:26:58;;;;;;;22.48;3.80;;;8.60;99.90;;;;;;5011917;28;20108;-68
2023/05/17 00:29:24;;;;;;;29.38;4.60;;;8.60;99.90;;;;;;4950190;28;208756;-68
2023/05/17 00:31:50;;;;;;;22.83;3.90;;;8.50;99.90;;;;;;4988772;28;20073;-68
2023/05/17 00:34:17;;;;;;;24.73;4.18;;;8.60;99.90;;;;;;4955872;28;212180;-68
2023/05/17 00:36:43;;;;;;;24.77;4.00;;;8.40;99.90;;;;;;5017781;28;20062;-68
2023/05/17 00:39:09;;;;;;;20.33;3.83;;;8.40;99.90;;;;;;4959366;28;235753;-69
2023/05/17 00:41:35;;;;;;;24.92;4.18;;;8.40;99.90;;;;;;5002678;28;20114;-67
2023/05/17 00:44:01;;;;;;;25.92;4.57;;;8.30;99.90;;;;;;4950023;28;207406;-67
2023/05/17 00:46:27;;;;;;;25.17;4.50;;;8.30;99.90;;;;;;4985068;28;20739;-66
2023/05/17 00:48:53;;;;;;;25.17;3.75;;;8.30;99.90;;;;;;4945510;28;207426;-66
2023/05/17 00:51:20;;;;;;;23.90;4.03;;;8.30;99.90;;;;;;4998584;28;20734;-65
2023/05/17 00:53:46;;;;;;;24.65;4.32;;;8.30;99.90;;;;;;4938278;28;207288;-65
2023/05/17 00:56:12;;;;;;;28.60;4.90;;;8.40;99.90;;;;;;5001900;28;20061;-67
2023/05/17 00:58:39;;;;;;;28.58;4.18;;;8.40;99.90;;;;;;4918008;28;206801;-66
2023/05/17 01:01:06;;;;;;;24.67;4.35;;;8.40;99.90;;;;;;4987018;28;20084;-66
2023/05/17 01:03:32;;;;;;;19.45;3.92;;;8.40;99.90;;;;;;4956637;28;210158;-66
2023/05/17 01:05:58;;;;;;;22.02;4.20;;;8.40;99.90;;;;;;4996810;28;20058;-66
2023/05/17 01:08:24;;;;;;;22.48;4.13;;;8.40;99.90;;;;;;4971816;28;160216;-66
2023/05/17 01:10:53;;;;;;;25.27;4.65;;;8.40;99.90;;;;;;4996467;28;20055;-66
2023/05/17 01:13:31;;;;;;;28.33;3.90;;;8.40;99.90;;;;;;4952548;28;221485;-67
2023/05/17 01:16:09;;;;;;;22.77;3.80;;;8.40;99.90;;;;;;5017519;28;20061;-67
2023/05/17 01:18:43;;;;;;;26.35;3.90;;;8.50;99.90;;;;;;4956755;28;212862;-67
2023/05/17 01:21:46;;;;;;;25.98;4.05;;;8.40;99.90;;;;;;5025712;28;20468;-66
2023/05/17 01:24:43;;;;;;;28.40;3.70;;;8.40;99.90;;;;;;4957606;28;206863;-67
2023/05/17 01:27:11;;;;;;;22.33;3.97;;;8.40;99.90;;;;;;5006828;28;20597;-67
2023/05/17 01:29:39;;;;;;;26.13;3.90;;;8.40;99.90;;;;;;4958928;28;207297;-67
2023/05/17 01:32:07;;;;;;;26.48;4.45;;;8.30;99.90;;;;;;4987874;28;20046;-67
2023/05/17 01:34:34;;;;;;;19.83;3.83;;;8.30;99.90;;;;;;4944471;28;211014;-68
2023/05/17 01:37:00;;;;;;;25.25;4.40;;;8.30;99.90;;;;;;5007398;28;20049;-67
2023/05/17 01:39:27;;;;;;;19.13;3.83;;;8.20;99.90;;;;;;4961912;28;206078;-67
2023/05/17 01:42:02;;;;;;;28.38;4.45;;;8.20;99.90;;;;;;5012416;28;20060;-67
2023/05/17 01:44:35;;;;;;;20.80;3.97;;;8.10;99.90;;;;;;4961982;28;212286;-68
2023/05/17 01:47:28;;;;;;;26.73;3.92;;;8.10;99.90;;;;;;5007822;28;20061;-68
2023/05/17 01:49:56;;;;;;;28.95;4.22;;;8.10;99.90;;;;;;4975517;28;207023;-67
2023/05/17 01:52:36;;;;;;;29.85;4.03;;;8.10;99.90;;;;;;4984928;28;20089;-67
2023/05/17 01:55:30;;;;;;;26.00;3.72;;;8.20;99.90;;;;;;4970282;28;210616;-67
2023/05/17 01:57:57;;;;;;;22.42;3.63;;;8.20;99.90;;;;;;4970668;28;209467;-67
2023/05/17 02:00:26;;;;;;;32.22;4.50;;;8.10;99.90;;;;;;4965023;28;206652;-67
2023/05/17 02:02:52;;;;;;;25.88;3.80;;;8.10;99.90;;;;;;5006397;28;20046;-67
2023/05/17 02:05:18;;;;;;;24.60;4.38;;;8.00;99.90;;;;;;4977693;28;206522;-67
2023/05/17 02:07:44;;;;;;;25.77;3.97;;;8.00;99.90;;;;;;5004889;28;20784;-66
2023/05/17 02:10:11;;;;;;;21.50;4.10;;;7.90;99.90;;;;;;4957352;28;206281;-65
2023/05/17 02:12:37;;;;;;;23.02;3.83;;;7.80;99.90;;;;;;5008902;28;20058;-67
2023/05/17 02:15:03;;;;;;;33.58;4.63;;;7.80;99.90;;;;;;4961941;28;209462;-66
2023/05/17 02:17:29;;;;;;;27.70;3.83;;;7.80;99.90;;;;;;4984386;28;20034;-66
2023/05/17 02:19:55;;;;;;;21.33;4.20;;;7.80;99.90;;;;;;4943811;28;206755;-67
2023/05/17 02:22:21;;;;;;;23.90;3.97;;;7.70;99.90;;;;;;5000082;28;20054;-67
2023/05/17 02:24:48;;;;;;;29.42;3.85;;;7.80;99.90;;;;;;4969119;28;208027;-67
2023/05/17 02:27:14;;;;;;;27.23;4.20;;;7.70;99.90;;;;;;5006823;28;20046;-67
2023/05/17 02:29:40;;;;;;;25.00;4.18;;;7.70;99.90;;;;;;4965976;28;210033;-66
2023/05/17 02:32:06;;;;;;;25.73;3.95;;;7.70;99.90;;;;;;4985860;28;20061;-67
2023/05/17 02:34:32;;;;;;;30.40;4.90;;;7.70;99.90;;;;;;4955691;28;215709;-68
2023/05/17 02:36:58;;;;;;;27.52;4.35;;;7.70;99.90;;;;;;4995544;28;20061;-66
2023/05/17 02:39:24;;;;;;;24.98;4.15;;;7.60;99.90;;;;;;4952129;28;211034;-67
2023/05/17 02:41:50;;;;;;;27.90;3.85;;;7.60;99.90;;;;;;5012844;28;20507;-66
2023/05/17 02:44:16;;;;;;;29.35;4.05;;;7.60;99.90;;;;;;4965307;28;212821;-67
2023/05/17 02:46:42;;;;;;;34.25;4.38;;;7.50;99.90;;;;;;4999337;28;20050;-66
2023/05/17 02:49:09;;;;;;;33.75;4.72;;;7.50;99.90;;;;;;4963244;28;209025;-66
2023/05/17 02:51:35;;;;;;;26.73;3.80;;;7.40;99.90;;;;;;5006348;28;20045;-66
2023/05/17 02:54:01;;;;;;;27.77;4.65;;;7.40;99.90;;;;;;4938946;28;206619;-66
2023/05/17 02:56:27;;;;;;;30.77;4.65;;;7.40;99.90;;;;;;5017747;28;20046;-66
2023/05/17 02:58:56;;;;;;;22.13;4.15;;;7.40;99.90;;;;;;4918622;28;231469;-66
2023/05/17 03:01:22;;;;;;;22.67;3.70;;;7.40;99.90;;;;;;4994400;28;20388;-66
2023/05/17 03:03:48;;;;;;;27.83;4.03;;;7.50;99.90;;;;;;4954229;28;213947;-67
2023/05/17 03:06:14;;;;;;;28.55;3.92;;;7.50;99.90;;;;;;5009324;28;20057;-66
2023/05/17 03:08:40;;;;;;;25.00;3.70;;;7.60;99.90;;;;;;4955743;28;209018;-66
2023/05/17 03:11:07;;;;;;;20.25;3.85;;;7.60;99.90;;;;;;5002698;28;20053;-67
2023/05/17 03:13:33;;;;;;;25.98;4.28;;;7.60;99.90;;;;;;4971619;28;210878;-66
2023/05/17 03:15:59;;;;;;;21.58;3.90;;;7.60;99.90;;;;;;5016620;28;20442;-66
2023/05/17 03:18:25;;;;;;;21.77;3.58;;;7.60;99.90;;;;;;4994059;28;205739;-67
2023/05/17 03:20:51;;;;;;;24.67;3.80;;;7.60;99.90;;;;;;5003272;28;20518;-67
2023/05/17 03:23:17;;;;;;;23.42;3.45;;;7.60;99.90;;;;;;4979837;28;207927;-67
2023/05/17 03:25:44;;;;;;;25.58;3.03;;;7.60;99.90;;;;;;5021375;28;20042;-66
2023/05/17 03:28:10;;;;;;;18.40;3.53;;;7.70;99.90;;;;;;4957423;28;210060;-67
2023/05/17 03:30:36;;;;;;;21.85;3.15;;;7.70;99.90;;;;;;5030873;28;20412;-68
2023/05/17 03:33:02;;;;;;;19.98;3.55;;;7.70;99.90;;;;;;4959624;28;209922;-66
2023/05/17 03:35:28;;;;;;;18.73;3.17;;;7.70;99.90;;;;;;4986849;28;20046;-68
2023/05/17 03:37:54;;;;;;;19.13;3.08;;;7.70;99.90;;;;;;4988125;28;20046;-67
2023/05/17 03:40:20;;;;;;;26.88;3.65;;;7.70;99.90;;;;;;4969708;28;226461;-68
2023/05/17 03:42:46;;;;;;;17.42;2.90;;;7.70;99.90;;;;;;4985594;28;20062;-66
2023/05/17 03:45:12;;;;;;;28.65;3.22;;;7.70;99.90;;;;;;4917108;28;208704;-66
2023/05/17 03:47:39;;;;;;;22.08;3.80;;;7.70;99.90;;;;;;4987531;28;20050;-67
2023/05/17 03:50:06;;;;;;;17.33;3.20;;;7.60;99.90;;;;;;4968919;28;216538;-68
2023/05/17 03:52:32;;;;;;;16.63;2.50;;;7.60;99.90;;;;;;4982556;28;20058;-67
2023/05/17 03:54:58;;;;;;;22.05;3.20;;;7.50;99.90;;;;;;4967886;28;212811;-67
2023/05/17 03:57:25;;;;;;;23.45;3.28;;;7.50;99.90;;;;;;5005477;28;20769;-67
2023/05/17 03:59:51;;;;;;;22.38;2.85;;;7.50;99.90;;;;;;4946733;28;249190;-67
2023/05/17 04:02:17;;;;;;;19.88;3.00;;;7.50;99.90;;;;;;4983217;28;20064;-67
2023/05/17 04:04:50;;;;;;;21.27;3.03;;;7.50;99.90;;;;;;4944934;28;206800;-67
2023/05/17 04:07:16;;;;;;;22.95;2.90;;;7.50;99.90;;;;;;5008652;28;20061;-67
2023/05/17 04:09:42;;;;;;;18.73;2.88;;;7.50;99.90;;;;;;4958589;28;209671;-67
2023/05/17 04:12:09;;;;;;;15.45;2.17;;;7.50;99.90;;;;;;4989685;28;20050;-68
2023/05/17 04:14:38;;;;;;;19.85;2.60;;;7.50;99.90;;;;;;4963766;28;209050;-67
2023/05/17 04:17:04;;;;;;;17.95;2.63;;;7.60;99.90;;;;;;5016050;28;20514;-67
2023/05/17 04:19:31;;;;;;;15.18;2.40;;;7.60;99.90;;;;;;4977231;28;210847;-67
2023/05/17 04:21:57;;;;;;;18.80;2.70;;;7.70;99.90;;;;;;5012960;28;20060;-67
2023/05/17 04:24:23;;;;;;;20.35;2.63;;;7.70;99.90;;;;;;4958031;28;207640;-67
2023/05/17 04:26:49;;;;;;;16.58;2.60;;;7.80;99.90;;;;;;4996338;28;20057;-67
2023/05/17 04:29:15;;;;;;;15.60;2.42;;;7.90;99.90;;;;;;4961268;28;207515;-67
2023/05/17 04:31:41;;;;;;;19.67;2.55;;;7.90;99.90;;;;;;5010528;28;20042;-68
2023/05/17 04:34:08;;;;;;;20.60;2.95;;;8.00;99.90;;;;;;4955965;28;210558;-67
2023/05/17 04:36:34;;;;;;;18.92;2.10;;;8.00;99.90;;;;;;5000056;28;21977;-67
2023/05/17 04:39:01;;;;;;;17.38;2.35;;;8.10;99.90;;;;;;4973195;28;210445;-67
2023/05/17 04:41:27;;;;;;;14.52;2.72;;;8.10;99.90;;;;;;5013667;28;20058;-67
2023/05/17 04:43:53;;;;;;;17.88;2.35;;;8.20;99.90;;;;;;4956713;28;206907;-68
2023/05/17 04:46:20;;;;;;;21.30;2.53;;;8.30;99.90;;;;;;5008519;28;20056;-67
2023/05/17 04:48:46;;;;;;;12.98;2.42;;;8.40;99.90;;;;;;4961908;28;207939;-68
2023/05/17 04:51:12;;;;;;;19.13;2.50;;;8.40;99.90;;;;;;5023105;28;20522;-67
2023/05/17 04:53:38;;;;;;;16.95;2.10;;;8.40;99.90;;;;;;4960270;28;207730;-67
2023/05/17 04:56:05;;;;;;;15.90;2.60;;;8.40;99.90;;;;;;5011392;28;20050;-66
2023/05/17 04:58:31;;;;;;;18.25;2.35;;;8.50;99.90;;;;;;4927618;28;217736;-67
2023/05/17 05:00:57;;;;;;;13.45;2.00;;;8.50;99.90;;;;;;5000227;28;20054;-67
2023/05/17 05:03:23;;;;;;;16.13;2.20;;;8.60;99.90;;;;;;4932443;28;211374;-68
2023/05/17 05:05:49;;;;;;;13.75;1.92;;;8.60;99.90;;;;;;5027071;28;20053;-67
2023/05/17 05:08:16;;;;;;;21.13;2.28;;;8.60;99.90;;;;;;4953422;28;208898;-67
2023/05/17 05:10:42;;;;;;;14.50;1.95;;;8.70;99.90;;;;;;5019131;28;20081;-68
2023/05/17 05:13:08;;;;;;;13.80;1.95;;;8.80;99.90;;;;;;4929159;28;207850;-68
2023/05/17 05:15:34;;;;;;;13.40;1.90;;;8.80;99.90;;;;;;5025735;28;20053;-68
2023/05/17 05:18:00;;;;;;;14.45;2.30;;;8.90;99.90;;;;;;4977570;28;209320;-68
2023/05/17 05:20:26;;;;;;;15.60;2.08;;;8.90;99.90;;;;;;4972359;28;208684;-68
2023/05/17 05:22:52;;;;;;;14.82;2.00;;;8.90;99.90;;;;;;4984216;28;20054;-68
2023/05/17 05:25:18;;;;;;;16.02;2.10;;;8.90;99.90;;;;;;4939048;28;211270;-68
2023/05/17 05:27:44;;;;;;;14.50;1.65;;;8.90;99.90;;;;;;4984957;28;20065;-68
2023/05/17 05:30:11;;;;;;;13.10;2.03;;;8.80;99.90;;;;;;4967171;28;209815;-67
2023/05/17 05:32:37;;;;;;;13.73;1.95;;;8.80;99.90;;;;;;4988892;28;20053;-66
2023/05/17 05:35:04;;;;;;;19.13;2.55;;;8.90;99.90;;;;;;4964162;28;210617;-67
2023/05/17 05:37:30;;;;;;;14.00;1.90;;;9.00;99.90;;;;;;4990700;28;20045;-67
2023/05/17 05:39:57;;;;;;;14.95;2.20;;;9.50;99.90;;;;;;4978861;28;207164;-67
2023/05/17 05:42:23;;;;;;;14.48;2.05;;;9.60;99.90;;;;;;5007042;28;20049;-69
2023/05/17 05:44:49;;;;;;;16.45;2.30;;;9.60;99.90;;;;;;4948061;28;207942;-67
2023/05/17 05:47:15;;;;;;;11.20;1.90;;;9.60;99.90;;;;;;4991658;28;20038;-67
2023/05/17 05:49:41;;;;;;;13.20;1.90;;;9.60;99.90;;;;;;4963067;28;212376;-67
2023/05/17 05:52:07;;;;;;;13.85;1.90;;;9.60;99.90;;;;;;4994623;28;20042;-68
2023/05/17 05:54:34;;;;;;;15.18;2.13;;;9.70;99.90;;;;;;4952188;28;210874;-67
2023/05/17 05:57:00;;;;;;;17.88;2.10;;;9.80;99.90;;;;;;4987533;28;20515;-66
2023/05/17 05:59:26;;;;;;;14.15;2.17;;;9.70;99.90;;;;;;4957221;28;207876;-66
2023/05/17 06:01:52;;;;;;;15.45;1.90;;;9.80;99.90;;;;;;5017087;28;20050;-66
2023/05/17 06:04:18;;;;;;;16.58;2.25;;;9.80;99.90;;;;;;4964761;28;207506;-66
2023/05/17 06:06:45;;;;;;;15.95;2.08;;;9.80;99.90;;;;;;4976627;28;20050;-66
2023/05/17 06:09:11;;;;;;;10.38;1.77;;;9.90;99.90;;;;;;4959328;28;210440;-68
2023/05/17 06:11:38;;;;;;;15.35;1.95;;;9.90;99.90;;;;;;5020673;28;20076;-68
2023/05/17 06:14:04;;;;;;;16.42;2.15;;;10.00;99.90;;;;;;4979577;28;206138;-65
2023/05/17 06:16:30;;;;;;;12.45;1.73;;;10.10;99.90;;;;;;5006909;28;20287;-66
2023/05/17 06:18:56;;;;;;;16.45;2.33;;;10.20;99.90;;;;;;4980878;28;205421;-67
2023/05/17 06:21:22;;;;;;;15.05;2.20;;;10.20;99.90;;;;;;5014040;28;20069;-67
2023/05/17 06:23:48;;;;;;;17.92;2.22;;;10.30;99.90;;;;;;4965001;28;207561;-67
2023/05/17 06:26:14;;;;;;;16.05;2.30;;;10.40;99.90;;;;;;5023110;28;20744;-68
2023/05/17 06:28:40;;;;;;;17.17;2.60;;;10.60;99.90;;;;;;4959764;28;208716;-66
2023/05/17 06:31:06;;;;;;;15.48;2.63;;;10.60;99.90;;;;;;5015014;28;21009;-66
2023/05/17 06:33:32;;;;;;;16.45;2.45;;;10.70;99.90;;;;;;4949264;28;209899;-66
2023/05/17 06:35:59;;;;;;;16.77;2.45;;;10.70;99.80;;;;;;5032174;28;20057;-66
2023/05/17 06:38:25;;;;;;;12.27;2.13;;;10.60;99.60;;;;;;4960261;28;207152;-66
2023/05/17 06:40:56;;;;;;;16.88;2.30;;;10.80;99.70;;;;;;5028669;28;20052;-67
2023/05/17 06:43:22;;;;;;;21.15;2.75;;;11.00;99.80;;;;;;4953566;28;207597;-67
2023/05/17 06:45:48;;;;;;;16.95;2.80;;;11.10;99.50;;;;;;5014340;28;20058;-67
2023/05/17 06:48:14;;;;;;;22.55;3.28;;;11.50;99.20;;;;;;4938717;28;211855;-66
2023/05/17 06:50:40;;;;;;;18.38;2.78;;;11.60;98.60;;;;;;5008590;28;20431;-67
2023/05/17 06:53:07;;;;;;;14.18;2.70;;;11.60;98.90;;;;;;4940212;28;208166;-66
2023/05/17 06:55:33;;;;;;;13.88;2.40;;;11.40;98.80;;;;;;5039392;28;20061;-66
2023/05/17 06:57:59;;;;;;;16.55;2.90;;;11.30;96.80;;;;;;5020597;28;215513;-66
2023/05/17 07:00:25;;;;;;;16.30;2.63;;;11.20;97.90;;;;;;4960082;28;203632;-66
2023/05/17 07:02:51;;;;;;;15.75;2.40;;;11.10;96.80;;;;;;4989641;28;20061;-66
2023/05/17 07:05:17;;;;;;;20.40;3.03;;;11.00;97.80;;;;;;4948892;28;209975;-66
2023/05/17 07:07:43;;;;;;;14.15;2.50;;;10.90;98.20;;;;;;5023122;28;20061;-66
2023/05/17 07:10:10;;;;;;;13.02;2.00;;;10.90;97.40;;;;;;4949715;28;207899;-64
2023/05/17 07:12:36;;;;;;;14.98;2.10;;;11.10;96.20;;;;;;5024155;28;20054;-67
2023/05/17 07:15:02;;;;;;;19.00;2.55;;;11.10;97.10;;;;;;4966636;28;207158;-66
2023/05/17 07:17:28;;;;;;;15.98;2.75;;;11.20;97.30;;;;;;4992483;28;20046;-67
2023/05/17 07:19:55;;;;;;;13.40;2.13;;;11.10;96.80;;;;;;4961211;28;207643;-67
2023/05/17 07:22:21;;;;;;;18.85;2.75;;;11.00;96.80;;;;;;4990551;28;20431;-68
2023/05/17 07:24:47;;;;;;;17.95;2.55;;;10.90;97.00;;;;;;4962747;28;220711;-67
2023/05/17 07:27:13;;;;;;;16.63;2.40;;;11.00;97.10;;;;;;4990920;28;20785;-67
2023/05/17 07:29:41;;;;;;;14.88;2.55;;;10.80;96.80;;;;;;4955924;28;207478;-67
2023/05/17 07:32:08;;;;;;;15.18;2.70;;;11.00;97.20;;;;;;4990023;28;20050;-65
2023/05/17 07:34:35;;;;;;;20.20;2.95;;;11.20;96.70;;;;;;4937600;28;207580;-67
2023/05/17 07:37:01;;;;;;;17.52;2.85;;;11.30;96.40;;;;;;4992453;28;20058;-68
2023/05/17 07:39:27;;;;;;;14.40;2.30;;;11.50;97.20;;;;;;4965527;28;206827;-67
2023/05/17 07:41:53;;;;;;;18.55;2.85;;;11.70;96.90;;;;;;5020072;28;20058;-67
2023/05/17 07:44:22;;;;;;;19.73;2.85;;;11.80;97.00;;;;;;4974510;28;208424;-67
2023/05/17 07:46:48;;;;;;;18.40;2.90;;;11.80;96.50;;;;;;5015965;28;20158;-66
2023/05/17 07:49:14;;;;;;;19.98;3.00;;;11.70;96.90;;;;;;4970608;28;207328;-67
2023/05/17 07:51:41;;;;;;;18.05;2.92;;;11.70;96.90;;;;;;4997520;28;20046;-66
2023/05/17 07:54:07;;;;;;;14.10;2.20;;;11.70;97.10;;;;;;4947598;28;208355;-67
2023/05/17 07:56:33;;;;;;;16.42;2.80;;;11.50;97.10;;;;;;5012402;28;20050;-67
2023/05/17 07:58:59;;;;;;;23.30;2.90;;;11.10;98.00;;;;;;4941443;28;206215;-66
2023/05/17 08:01:26;;;;;;;20.35;3.20;;;10.90;98.10;;;;;;5008166;28;20047;-66
2023/05/17 08:03:52;;;;;;;18.63;2.78;;;11.00;98.30;;;;;;4951688;28;210787;-66
2023/05/17 08:06:18;;;;;;;17.92;2.65;;;11.20;97.40;;;;;;5005640;28;20054;-67
2023/05/17 08:08:44;;;;;;;22.58;2.80;;;11.40;98.00;;;;;;4951182;28;208146;-67
2023/05/17 08:11:12;;;;;;;19.10;2.65;;;11.70;97.50;;;;;;5015661;28;20050;-66
2023/05/17 08:13:38;;;;;;;15.80;2.60;;;11.90;97.50;;;;;;4964376;28;209188;-67
2023/05/17 08:16:06;;;;;;;16.75;2.63;;;11.80;96.80;;;;;;5040300;28;20041;-67
2023/05/17 08:18:33;;;;;;;16.30;2.80;;;11.80;96.60;;;;;;4958574;28;206620;-67
2023/05/17 08:20:59;;;;;;;17.88;2.60;;;11.90;96.40;;;;;;5005371;28;20089;-66
2023/05/17 08:23:25;;;;;;;16.20;2.38;;;12.30;96.70;;;;;;4944743;28;204270;-65
2023/05/17 08:25:51;;;;;;;13.30;2.22;;;12.30;95.60;;;;;;5031715;28;20503;-65
2023/05/17 08:28:17;;;;;;;16.85;2.70;;;12.40;95.80;;;;;;4969298;28;213230;-66
2023/05/17 08:30:43;;;;;;;16.27;2.58;;;12.70;95.70;;;;;;5014336;28;20045;-65
2023/05/17 08:33:10;;;;;;;17.60;2.83;;;12.80;95.60;;;;;;4951596;28;207701;-66
2023/05/17 08:35:36;;;;;;;16.15;2.35;;;12.90;95.30;;;;;;5026118;28;20072;-66
2023/05/17 08:38:02;;;;;;;14.07;2.63;;;12.70;94.70;;;;;;4944404;28;207725;-66
2023/05/17 08:40:28;;;;;;;14.25;2.22;;;12.70;94.70;;;;;;5007570;28;20065;-67
2023/05/17 08:42:55;;;;;;;14.23;2.08;;;12.60;95.20;;;;;;4980318;28;20058;-64
2023/05/17 08:45:21;;;;;;;15.27;2.30;;;12.60;95.00;;;;;;4970563;28;206790;-67
2023/05/17 08:47:49;;;;;;;18.17;2.80;;;12.60;95.20;;;;;;5007743;28;20531;-67
2023/05/17 08:50:16;;;;;;;15.20;2.47;;;12.40;95.00;;;;;;4960909;28;207957;-65
2023/05/17 08:52:45;;;;;;;20.17;2.88;;;12.60;95.60;;;;;;5011423;28;20480;-65
2023/05/17 08:55:15;;;;;;;17.15;2.58;;;12.60;95.40;;;;;;4987512;28;208076;-66
2023/05/17 08:57:42;;;;;;;16.98;2.78;;;12.50;94.90;;;;;;5003916;28;20482;-65
2023/05/17 09:00:13;;;;;;;13.05;2.50;;;12.70;95.60;;;;;;4961790;28;210055;-65
2023/05/17 09:02:42;;;;;;;17.60;2.60;;;12.90;95.90;;;;;;5006014;28;20065;-66
2023/05/17 09:05:09;;;;;;;17.30;2.65;;;12.80;96.00;;;;;;4967337;28;206901;-67
2023/05/17 09:07:36;;;;;;;24.35;2.85;;;12.90;96.60;;;;;;4987623;28;20050;-67
2023/05/17 09:10:05;;;;;;;20.75;2.88;;;12.60;96.50;;;;;;4964265;28;210275;-66
2023/05/17 09:12:33;;;;;;;19.77;2.80;;;12.40;96.80;;;;;;4986955;28;20054;-67
2023/05/17 09:15:16;;;;;;;18.58;2.97;;;12.50;96.80;;;;;;4939032;28;220934;-67
2023/05/17 09:17:42;;;;;;;16.13;2.80;;;13.10;97.00;;;;;;4987675;28;20061;-67
2023/05/17 09:20:09;;;;;;;15.88;2.90;;;13.60;96.40;;;;;;4965597;28;206827;-67
2023/05/17 09:22:36;;;;;;;18.30;2.38;;;13.90;95.20;;;;;;5019280;28;20030;-67
2023/05/17 09:25:03;;;;;;;16.85;2.67;;;13.80;96.00;;;;;;4965023;28;213769;-66
2023/05/17 09:27:31;;;;;;;17.45;2.80;;;13.40;95.00;;;;;;5039761;28;20062;-66
2023/05/17 09:29:57;;;;;;;16.40;2.25;;;13.30;95.00;;;;;;4985764;28;205817;-66
2023/05/17 09:32:27;;;;;;;13.13;2.08;;;13.00;95.50;;;;;;5015895;28;20058;-66
2023/05/17 09:34:55;;;;;;;16.83;2.40;;;13.00;94.50;;;;;;4954023;28;205803;-65
2023/05/17 09:37:22;;;;;;;13.27;2.20;;;13.40;94.90;;;;;;4993494;28;20050;-67
2023/05/17 09:39:48;;;;;;;14.07;2.17;;;13.90;94.10;;;;;;4970542;28;209459;-65
2023/05/17 09:42:15;;;;;;;14.40;2.17;;;15.20;93.90;;;;;;5004754;28;20081;-67
2023/05/17 09:44:49;;;;;;;13.43;2.35;;;15.20;92.80;;;;;;4963473;28;210131;-67
2023/05/17 09:47:29;;;;;;;14.32;2.67;;;14.60;91.80;;;;;;4984979;28;20522;-67
2023/05/17 09:50:01;;;;;;;12.80;2.35;;;14.50;93.20;;;;;;4959508;28;207971;-67
2023/05/17 09:52:30;;;;;;;16.77;2.35;;;15.20;93.60;;;;;;4989422;28;20050;-65
2023/05/17 09:54:58;;;;;;;13.77;2.70;;;16.10;93.40;;;;;;4947380;28;209363;-68
2023/05/17 09:57:35;;;;;;;12.55;2.30;;;16.80;92.10;;;;;;4985269;28;20065;-66
2023/05/17 10:00:04;;;;;;;14.10;2.63;;;17.30;91.40;;;;;;4938660;28;209299;-66
2023/05/17 10:02:34;;;;;;;10.43;1.98;;;17.20;91.90;;;;;;4988274;28;20062;-66
2023/05/17 10:05:04;;;;;;;14.15;2.33;;;16.50;91.90;;;;;;4940821;28;206270;-65
2023/05/17 10:07:30;;;;;;;12.50;1.98;;;15.30;92.00;;;;;;4988421;28;20527;-65
2023/05/17 10:09:57;;;;;;;12.15;1.95;;;14.40;92.50;;;;;;4974511;28;207095;-66
2023/05/17 10:12:28;;;;;;;15.18;1.95;;;14.60;92.60;;;;;;5003815;28;20069;-67
2023/05/17 10:14:55;;;;;;;13.38;2.13;;;15.10;91.80;;;;;;4967933;28;212608;-67
2023/05/17 10:17:25;;;;;;;10.05;1.75;;;14.90;92.20;;;;;;4992609;28;20466;-66
2023/05/17 10:19:52;;;;;;;12.90;1.80;;;14.60;91.30;;;;;;4958520;28;212411;-67
2023/05/17 10:22:20;;;;;;;13.10;1.80;;;14.30;92.40;;;;;;4990753;28;20507;-65
2023/05/17 10:24:47;;;;;;;16.52;2.40;;;14.60;92.00;;;;;;4963438;28;207645;-67
2023/05/17 10:27:15;;;;;;;14.48;2.28;;;14.80;91.80;;;;;;4990165;28;20046;-68
2023/05/17 10:29:42;;;;;;;13.98;1.85;;;15.30;91.10;;;;;;4955579;28;207152;-67
2023/05/17 10:32:09;;;;;;;9.20;1.48;;;16.70;90.50;;;;;;4995194;28;20069;-65
2023/05/17 10:34:37;;;;;;;12.48;2.00;;;17.40;88.30;;;;;;4969784;28;208943;-66
2023/05/17 10:37:05;;;;;;;10.30;1.73;;;17.80;88.30;;;;;;4993211;28;20050;-66
2023/05/17 10:39:33;;;;;;;10.88;1.85;;;17.20;86.40;;;;;;4976001;28;194781;-66
2023/05/17 10:42:03;;;;;;;13.60;2.28;;;16.80;88.50;;;;;;4993003;28;20050;-67
2023/05/17 10:44:33;;;;;;;12.60;1.90;;;16.80;88.90;;;;;;4966239;28;211314;-66
2023/05/17 10:46:59;;;;;;;13.73;2.30;;;15.90;88.10;;;;;;4990502;28;20046;-67
2023/05/17 10:49:32;;;;;;;11.80;2.10;;;16.10;89.20;;;;;;4954154;28;207538;-66
2023/05/17 10:52:14;;;;;;;10.63;1.85;;;17.20;87.90;;;;;;4997070;28;20053;-66
2023/05/17 10:54:43;;;;;;;10.07;1.75;;;17.60;87.70;;;;;;4965297;28;210363;-67
2023/05/17 10:57:36;;;;;;;10.10;1.88;;;17.30;86.20;;;;;;4992545;28;20058;-67
2023/05/17 11:00:06;;;;;;;11.95;2.15;;;17.20;86.10;;;;;;4950464;28;215887;-66
2023/05/17 11:02:33;;;;;;;11.32;2.20;;;16.80;85.40;;;;;;4986978;28;20062;-67
2023/05/17 11:05:01;;;;;;;10.13;1.80;;;17.00;86.30;;;;;;4981148;28;205544;-67
2023/05/17 11:07:31;;;;;;;12.15;2.30;;;16.60;85.20;;;;;;4995203;28;20554;-65
2023/05/17 11:10:04;;;;;;;12.63;2.05;;;16.40;85.60;;;;;;4973252;28;210345;-66
2023/05/17 11:12:42;;;;;;;9.75;1.70;;;15.70;86.90;;;;;;5008363;28;20057;-66
2023/05/17 11:15:13;;;;;;;10.60;2.13;;;15.70;85.70;;;;;;4962733;28;212083;-67
2023/05/17 11:17:42;;;;;;;13.18;2.10;;;15.70;86.20;;;;;;5002038;28;20055;-65
2023/05/17 11:20:15;;;;;;;12.40;1.95;;;15.40;87.30;;;;;;4961227;28;213364;-67
2023/05/17 11:22:54;;;;;;;10.65;2.05;;;15.40;87.80;;;;;;5007467;28;20450;-66
2023/05/17 11:25:20;;;;;;;13.93;2.20;;;15.10;87.90;;;;;;4974074;28;213547;-67
2023/05/17 11:27:51;;;;;;;12.85;2.15;;;15.50;88.30;;;;;;4984769;28;20061;-65
2023/05/17 11:30:25;;;;;;;9.93;1.95;;;15.80;88.30;;;;;;4976111;28;213064;-67
2023/05/17 11:32:53;;;;;;;11.95;2.08;;;16.10;86.80;;;;;;5014882;28;20049;-67
2023/05/17 11:35:25;;;;;;;14.45;1.95;;;16.00;88.50;;;;;;4977595;28;207283;-68
2023/05/17 11:37:53;;;;;;;15.15;2.60;;;15.40;89.40;;;;;;4988573;28;20054;-65
2023/05/17 11:40:26;;;;;;;15.35;2.28;;;14.90;90.10;;;;;;4978057;28;219659;-67
2023/05/17 11:43:12;;;;;;;14.98;2.55;;;15.30;90.20;;;;;;5009052;28;20061;-67
2023/05/17 11:46:01;;;;;;;14.68;2.63;;;15.50;90.30;;;;;;4966835;28;206185;-68
2023/05/17 11:48:29;;;;;;;12.73;2.15;;;16.00;89.40;;;;;;4957382;28;210793;-67
2023/05/17 11:50:55;;;;;;;13.48;2.20;;;16.10;90.10;;;;;;5036618;28;20062;-67
2023/05/17 11:53:24;;;;;;;11.15;2.10;;;16.10;88.90;;;;;;4956068;28;208933;-66
2023/05/17 11:55:51;;;;;;;16.98;2.30;;;15.80;89.10;;;;;;5017077;28;20050;-66
2023/05/17 11:58:25;;;;;;;18.40;2.40;;;15.80;88.60;;;;;;4935640;28;223918;-67
2023/05/17 12:00:53;;;;;;;11.75;2.00;;;15.40;90.00;;;;;;5028314;28;20703;-67
2023/05/17 12:03:25;;;;;;;13.10;2.35;;;16.00;88.80;;;;;;4949046;28;211997;-68
2023/05/17 12:06:12;;;;;;;17.60;3.00;;;16.10;88.40;;;;;;5029571;28;20069;-67
2023/05/17 12:08:43;;;;;;;13.50;2.22;;;16.00;87.60;;;;;;4961987;28;208348;-67
2023/05/17 12:11:13;;;;;;;11.45;2.20;;;15.70;88.50;;;;;;5014551;28;20054;-67
2023/05/17 12:13:42;;;;;;;13.93;2.20;;;15.10;88.60;;;;;;4948964;28;208495;-68
2023/05/17 12:16:12;;;;;;;12.05;2.05;;;14.90;88.80;;;;;;5015791;28;20056;-66
2023/05/17 12:18:40;;;;;;;16.33;2.53;;;14.90;89.80;;;;;;4958019;28;209513;-67
2023/05/17 12:21:08;;;;;;;14.00;2.15;;;15.20;90.30;;;;;;5016472;28;20073;-66
2023/05/17 12:23:36;;;;;;;15.50;2.33;;;15.20;89.90;;;;;;4967743;28;207072;-67
2023/05/17 12:26:13;;;;;;;19.80;2.47;;;14.80;89.30;;;;;;4993256;28;20130;-67
2023/05/17 12:28:42;;;;;;;13.98;2.15;;;15.00;90.40;;;;;;4940695;28;206895;-68
2023/05/17 12:31:14;;;;;;;14.88;2.13;;;15.80;90.30;;;;;;5016191;28;20053;-67
2023/05/17 12:33:43;;;;;;;12.20;2.10;;;16.00;88.80;;;;;;4951097;28;207428;-68
2023/05/17 12:36:11;;;;;;;12.85;2.22;;;15.90;89.10;;;;;;4995669;28;20054;-68
2023/05/17 12:38:40;;;;;;;12.65;2.20;;;15.60;87.80;;;;;;4952631;28;211469;-66